Aviation Digital Data Service (ADDS)

Output produced by METARs form (0606 UTC 25 June 2018)
found at http://www.aviationweather.gov/adds/metars/
 
HSOB 250500Z 16010KT CAVOK 27/20 Q1012
TAF HSOB 250500Z 2506/2612 21010G20KT 9999 SCT040 SCT140
       
TAF HSSJ 241000Z 2412/2518 18004KT 9999 FEW045 SCT090 
     PROB30 
     TEMPO 2413/2418 21005G15KT 4000 FEW040CB SCT090 
     PROB30 
     TEMPO 2420/2500 21005KT 4000 TSRA FEW040CB SCT090 
     PROB30 
     TEMPO 2506/2512 21005KT 4000 TSRA FEW040CB SCT090 
     PROB30 
     TEMPO 2512/2518 21005KT 4000 TSRA FEW040CB SCT090
       
TAF HSKA 250500Z 2506/2612 18008KT 9999 SCT040 SCT140
       
HSSS 250600Z 18017KT 9999 FEW050 BKN140 25/17 Q1010 NOSIG
TAF COR HSSS 250500Z 2506/2612 18015G25KT 9999 FEW040 SCT140 
     TEMPO 2506/2509 6000
       
HSPN 250500Z 33009KT CAVOK 34/17 Q1006
TAF COR HSPN 250500Z 2506/2612 32008KT CAVOK 
     BECMG 2512/2514 02010G20KT